Nearby METAR Reports. Back to Deeside Weather.

 

EGNR - Hawarden (aut), United Kingdom
Distance from station: NNE 5mi, 8km
Updated: Tue, 18-Sep-2018 8:50pm BST
NOT Current
Light rain, Drizzle, Few clouds
Light rain, Drizzle, Few clouds
 Wind from SSE
Wind: SSE 8 mph , 13 km/h
Temperature: 61°F , 16°C
Dew Point: 59°F , 15°C
Humidity: 94%
Barometer: 29.68 inHg , 1005 hPa
Summary: Light rain, Drizzle
Clouds: Few Clouds
Visibility: 6 miles , 10 km
Cloud details: Few Clouds 3200 ft
2018/09/18 19:50 EGNR 181950Z 16007KT 9999 -RADZ FEW032 16/15 Q1005
EGGP - Liverpool Airpor, United Kingdom
Distance from station: NNE 17mi, 27km
Updated: Wed, 19-Sep-2018 1:20am BST
Partly Cloudy
Partly Cloudy
 Wind from S
Wind: S 9 mph , 15 km/h
Temperature: 61°F , 16°C
Dew Point: 57°F , 14°C
Humidity: 88%
Barometer: 29.71 inHg , 1006 hPa
Clouds: Partly Cloudy
Visibility: 6 miles , 10 km
Cloud details: Partly Cloudy 2800 ft
2018/09/19 00:20 EGGP 190020Z 17008KT 9999 SCT028 16/14 Q1006
 
EGOS - Shawbury Raf, United Kingdom
Distance from station: SE 25mi, 41km
Updated: Wed, 19-Sep-2018 12:50am BST
Overcast
Overcast
 Wind from S
Wind: S 7 mph , 11 km/h
Temperature: 59°F , 15°C
Dew Point: 57°F , 14°C
Humidity: 94%
Barometer: 29.74 inHg , 1007 hPa
Clouds: Overcast
Visibility: 6 miles , 10 km
Cloud details: Overcast 17000 ft
2018/09/18 23:50 EGOS 182350Z AUTO 18006KT 9999 OVC170/// 15/14 Q1007
EGCC - Manchester Intl, United Kingdom
Distance from station: ENE 36mi, 58km
Updated: Wed, 19-Sep-2018 1:20am BST
Clear
Clear
 Wind from S
Wind: S 8 mph , 13 km/h
Temperature: 59°F , 15°C
Dew Point: 55°F , 13°C
Humidity: 88%
Barometer: 29.74 inHg , 1007 hPa
Clouds: Clear
Visibility: 6 miles , 10 km
2018/09/19 00:20 EGCC 190020Z AUTO 19007KT 150V230 9999 NCD 15/13 Q1007

Metar display script from Saratoga-Weather.org